Flight Track Log - Related Links

Times and Time Zones

All times are in EDT time to prevent confusion due to time zone crossing. See the SWA1729 flight status page for this flight to view local times or setup timezone preferences in your user account.

Time Position Orientation Groundspeed Altitude Reporting Facility
EDT Latitude Longitude Course Direction KTS MPH feet Rate Location/Type
Fri 07:32:39 PM 36.1000 -86.6833 238° Southwest 161 185 1,500  Level Nashville TRACON
Fri 07:33:15 PM 36.0833 -86.7167 238° Southwest 179 206 2,600 2,667 Climbing Nashville TRACON
Fri 07:34:09 PM 36.0833 -86.7833 270° West 220 253 5,500 3,138 Climbing Nashville TRACON
Fri 07:35:04 PM 36.0833 -86.8500 270° West 225 259 8,300 2,942 Climbing Nashville TRACON
Fri 07:35:53 PM 36.0900 -86.9178 277° West 237 273 10,600 1,982 Climbing Memphis Center
Fri 07:36:53 PM 36.0928 -87.0178 272° West 268 308 11,900 2,050 Climbing Memphis Center
Fri 07:37:53 PM 36.0958 -87.1308 272° West 317 365 14,700 2,500 Climbing Memphis Center
Fri 07:38:53 PM 36.0961 -87.2283 270° West 329 379 16,900 2,100 Climbing Memphis Center
Fri 07:39:53 PM 36.0739 -87.3422 256° West 334 384 18,900 2,050 Climbing Memphis Center
Fri 07:40:53 PM 36.0494 -87.4561 255° West 344 396 21,000 2,100 Climbing Memphis Center
Fri 07:41:53 PM 36.0272 -87.5800 258° West 358 412 23,100 1,900 Climbing Memphis Center
Fri 07:42:53 PM 36.0008 -87.6964 254° West 363 418 24,800 1,550 Climbing Memphis Center
Fri 07:43:53 PM 35.9742 -87.8281 256° West 363 418 26,200 1,750 Climbing Memphis Center
Fri 07:44:53 PM 35.9497 -87.9519 256° West 363 418 28,300 1,950 Climbing Memphis Center
Fri 07:45:53 PM 35.9269 -88.0678 256° West 358 412 30,100 1,537 Climbing Memphis Center
Fri 07:46:54 PM 35.9056 -88.1658 255° West 358 412 31,400 1,000 Climbing Memphis Center
Fri 07:47:53 PM 35.8783 -88.2742 253° West 345 397 32,100 958 Climbing Memphis Center
Fri 07:48:53 PM 35.8300 -88.3778 240° Southwest 345 397 33,300 950 Climbing Memphis Center
Fri 07:49:53 PM 35.7772 -88.4789 237° Southwest 350 403 34,000 350 Climbing Memphis Center
Fri 07:50:53 PM 35.7289 -88.5797 239° Southwest 355 409 34,000  Level Memphis Center
Fri 07:51:53 PM 35.6719 -88.6883 237° Southwest 355 409 34,000  Level Memphis Center
Fri 07:52:53 PM 35.6231 -88.7864 238° Southwest 350 403 34,000  Level Memphis Center
Fri 07:53:53 PM 35.5783 -88.8792 239° Southwest 350 403 34,000  Level Memphis Center
Fri 07:54:53 PM 35.5294 -88.9819 240° Southwest 350 403 34,000  Level Memphis Center
Fri 07:55:53 PM 35.4806 -89.0772 238° Southwest 345 397 34,000 -50 Level Memphis Center
Fri 07:56:53 PM 35.4294 -89.1772 238° Southwest 345 397 33,900 -550 Descending Memphis Center
Fri 07:57:53 PM 35.3803 -89.2772 239° Southwest 345 397 32,900 -950 Descending Memphis Center
Fri 07:58:53 PM 35.3308 -89.3722 237° Southwest 340 391 32,000 -450 Descending Memphis Center
Fri 07:59:53 PM 35.2775 -89.4769 238° Southwest 340 391 32,000  Level Memphis Center
Fri 08:00:53 PM 35.2261 -89.5767 238° Southwest 340 391 32,000  Level Memphis Center
Fri 08:01:53 PM 35.1786 -89.6736 239° Southwest 340 391 32,000  Level Memphis Center
Fri 08:02:53 PM 35.1269 -89.7731 238° Southwest 340 391 32,000  Level Memphis Center
Fri 08:03:53 PM 35.0794 -89.8700 239° Southwest 340 391 32,000  Level Memphis Center
Fri 08:04:53 PM 35.0297 -89.9667 238° Southwest 340 391 32,000  Level Memphis Center
Fri 08:05:53 PM 34.9589 -90.0428 221° Southwest 340 391 32,000  Level Memphis Center
Fri 08:06:53 PM 34.8819 -90.1117 216° Southwest 340 391 32,000  Level Memphis Center
Fri 08:07:53 PM 34.8006 -90.1850 217° Southwest 358 412 32,000  Level Memphis Center
Fri 08:08:53 PM 34.7214 -90.2586 217° Southwest 364 419 32,000  Level Memphis Center
Fri 08:09:53 PM 34.6403 -90.3319 217° Southwest 364 419 32,000  Level Memphis Center
Fri 08:10:53 PM 34.5608 -90.4050 217° Southwest 364 419 32,000  Level Memphis Center
Fri 08:11:53 PM 34.4772 -90.4781 216° Southwest 364 419 32,000  Level Memphis Center
Fri 08:12:53 PM 34.4000 -90.5511 218° Southwest 364 419 32,000  Level Memphis Center
Fri 08:13:53 PM 34.3186 -90.6236 216° Southwest 364 419 32,000  Level Memphis Center
Fri 08:14:53 PM 34.2369 -90.6964 216° Southwest 364 419 32,000  Level Memphis Center
Fri 08:15:53 PM 34.1636 -90.7614 216° Southwest 364 419 32,000  Level Memphis Center
Fri 08:16:53 PM 34.0822 -90.8336 216° Southwest 364 419 32,000  Level Memphis Center
Fri 08:17:53 PM 34.0025 -90.9083 218° Southwest 364 419 32,000  Level Memphis Center
Fri 08:18:53 PM 33.9228 -90.9831 218° Southwest 374 430 32,000  Level Memphis Center
Fri 08:19:53 PM 33.8389 -91.0550 215° Southwest 374 430 32,000  Level Memphis Center
Fri 08:20:53 PM 33.7592 -91.1267 217° Southwest 369 425 32,000  Level Memphis Center
Fri 08:21:53 PM 33.6753 -91.1983 215° Southwest 369 425 32,000  Level Memphis Center
Fri 08:22:53 PM 33.5956 -91.2725 218° Southwest 364 419 32,000  Level Memphis Center
Fri 08:23:53 PM 33.5156 -91.3414 216° Southwest 364 419 32,000  Level Memphis Center
Fri 08:25:27 PM 33.3875 -91.4631 218° Southwest 369 425 32,000  Level Fort Worth Center
Fri 08:26:27 PM 33.3011 -91.5336 214° Southwest 364 419 32,000  Level Fort Worth Center
Fri 08:27:27 PM 33.2231 -91.6033 217° Southwest 364 419 32,000  Level Fort Worth Center
Fri 08:28:27 PM 33.1425 -91.6706 215° Southwest 376 433 32,000  Level Fort Worth Center
Fri 08:29:27 PM 33.0644 -91.7425 218° Southwest 376 433 32,000  Level Fort Worth Center
Fri 08:30:27 PM 32.9739 -91.8175 215° Southwest 368 423 32,000  Level Fort Worth Center
Fri 08:31:27 PM 32.8956 -91.8867 217° Southwest 363 418 32,000  Level Fort Worth Center
Fri 08:32:27 PM 32.8111 -91.9586 216° Southwest 369 425 32,000  Level Fort Worth Center
Fri 08:33:27 PM 32.7306 -92.0278 216° Southwest 369 425 32,000  Level Fort Worth Center
Fri 08:35:49 PM 32.5378 -92.1900 215° Southwest 370 426 32,000  Level Houston Center
Fri 08:36:51 PM 32.4553 -92.2592 215° Southwest 366 421 32,000  Level Houston Center
Fri 08:37:52 PM 32.3739 -92.3297 216° Southwest 364 419 32,000  Level Houston Center
Fri 08:38:54 PM 32.2950 -92.4022 218° Southwest 361 415 32,000  Level Houston Center
Fri 08:39:56 PM 32.2142 -92.4736 217° Southwest 362 417 32,000  Level Houston Center
Fri 08:40:57 PM 32.1147 -92.5572 215° Southwest 364 419 32,000  Level Houston Center
Fri 08:41:59 PM 32.0325 -92.6264 216° Southwest 364 419 32,000  Level Houston Center
Fri 08:43:01 PM 31.9553 -92.6994 219° Southwest 358 412 32,000  Level Houston Center
Fri 08:44:02 PM 31.8889 -92.7847 227° Southwest 353 406 32,000  Level Houston Center
Fri 08:45:04 PM 31.8231 -92.8678 227° Southwest 349 402 32,000  Level Houston Center
Fri 08:46:06 PM 31.7575 -92.9525 228° Southwest 351 404 32,000  Level Houston Center
Fri 08:47:07 PM 31.6928 -93.0356 228° Southwest 346 398 32,000  Level Houston Center
Fri 08:48:09 PM 31.6133 -93.1353 227° Southwest 350 403 32,000  Level Houston Center
Fri 08:49:11 PM 31.5478 -93.2167 227° Southwest 345 397 32,000  Level Houston Center
Fri 08:50:12 PM 31.4850 -93.2950 227° Southwest 346 398 32,000  Level Houston Center
Fri 08:51:14 PM 31.4211 -93.3775 228° Southwest 344 396 32,000  Level Houston Center
Fri 08:52:15 PM 31.3756 -93.4728 241° Southwest 339 390 32,000  Level Houston Center
Fri 08:53:17 PM 31.3550 -93.5961 259° West 334 384 32,000  Level Houston Center
Fri 08:54:19 PM 31.3375 -93.7042 259° West 337 388 32,000  Level Houston Center
Fri 08:55:20 PM 31.3206 -93.8133 260° West 340 391 32,000  Level Houston Center
Fri 08:56:22 PM 31.2869 -93.9144 249° West 344 396 32,000  Level Houston Center
Fri 08:57:23 PM 31.2069 -93.9836 216° Southwest 355 409 32,000  Level Houston Center
Fri 08:58:25 PM 31.1211 -94.0483 213° Southwest 363 418 32,000 -341 Level Houston Center
Fri 08:59:26 PM 31.0364 -94.1122 213° Southwest 361 415 31,300 -927 Descending Houston Center
Fri 09:00:28 PM 30.9508 -94.1761 213° Southwest 356 410 30,100 -1,258 Descending Houston Center
Fri 09:01:30 PM 30.8622 -94.2436 213° Southwest 322 371 28,700 -1,366 Descending Houston Center
Fri 09:02:31 PM 30.7903 -94.2967 212° Southwest 306 352 27,300 -1,659 Descending Houston Center
Fri 09:03:33 PM 30.7203 -94.3489 213° Southwest 300 345 25,300 -1,770 Descending Houston Center
Fri 09:04:33 PM 30.6475 -94.4025 212° Southwest 295 339 23,700 -1,220 Descending Houston Center
Fri 09:05:36 PM 30.5697 -94.4617 213° Southwest 341 392 22,800 -1,125 Descending Houston Center
Fri 09:05:53 PM 30.5397 -94.4822 211° Southwest 364 419 22,200 -2,032 Descending Houston Center
Fri 09:06:38 PM 30.4900 -94.5264 217° Southwest 340 391 20,700 -2,361 Descending Houston Center
Fri 09:06:54 PM 30.4675 -94.5594 232° Southwest 328 377 19,800 -2,262 Descending Houston Center
Fri 09:07:39 PM 30.4350 -94.6103 233° Southwest 323 372 18,400 -1,963 Descending Houston Center
Fri 09:08:41 PM 30.3842 -94.6906 234° Southwest 314 361 16,300 -2,416 Descending Houston Center
Fri 09:08:56 PM 30.3633 -94.7208 231° Southwest 311 358 15,300 -2,459 Descending Houston Center
Fri 09:09:42 PM 30.3314 -94.7733 235° Southwest 317 365 13,800 -2,149 Descending Houston Center
Fri 09:10:03 PM 30.2994 -94.8208 232° Southwest 341 392 12,900 -1,645 Descending Houston Center
Fri 09:10:44 PM 30.2747 -94.8594 233° Southwest 332 382 12,100 -1,258 Descending Houston Center
Fri 09:11:05 PM 30.2461 -94.9028 233° Southwest 319 367 11,600 -1,279 Descending Houston Center
Fri 09:11:45 PM 30.2125 -94.9578 235° Southwest 321 369 10,800 -1,309 Descending Houston Center
Fri 09:12:00 PM 30.1967 -94.9792 229° Southwest 319 367 10,400 -871 Descending Houston Center
Fri 09:12:47 PM 30.1581 -95.0397 234° Southwest 322 371 9,900 -222 Descending Houston Center
Fri 09:13:48 PM 30.0917 -95.0897 213° Southwest 297 342 10,000  Climbing Houston Center
Fri 09:14:50 PM 30.0136 -95.1236 201° Southwest 298 343 9,900 -488 Descending Houston Center
Fri 09:15:51 PM 29.9367 -95.1567 200° South 297 342 9,000 -780 Descending Houston Center
Fri 09:16:53 PM 29.8639 -95.1875 200° South 283 326 8,300 -488 Descending Houston Center
Fri 09:17:54 PM 29.8006 -95.2153 201° Southwest 251 289 8,000 -228 Descending Houston Center
Fri 09:18:12 PM 29.7664 -95.2300 201° Southwest 256 295 8,000  Level Houston Center
Fri 09:18:56 PM 29.7172 -95.2344 184° South 262 302 8,000  Level Houston Center
Fri 09:19:14 PM 29.6911 -95.2342 179° South 251 289 8,000 -787 Level Houston Center
Fri 09:19:57 PM 29.6475 -95.2367 183° South 256 295 7,200 -1,180 Descending Houston Center
Fri 09:20:15 PM 29.6222 -95.2378 182° South 250 288 6,800 -1,161 Descending Houston Center
Fri 09:20:59 PM 29.5792 -95.2383 181° South 254 292 6,000 -457 Descending Houston Center
Fri 09:22:00 PM 29.5231 -95.2806 213° Southwest 249 287 6,000  Level Houston Center
Fri 09:22:17 PM 29.5044 -95.3025 226° Southwest 251 289 6,000 -769 Level Houston Center
Fri 09:23:18 PM 29.4511 -95.3617 224° Southwest 240 276 5,000 -849 Descending Houston Center
Fri 09:24:03 PM 29.4256 -95.3878 222° Southwest 242 278 4,500 -885 Descending Houston Center
Fri 09:24:19 PM 29.4050 -95.4106 224° Southwest 221 254 4,100 -492 Descending Houston Center
Fri 09:25:04 PM 29.4025 -95.4542 266° West 210 242 4,000 -224 Descending Houston Center
Fri 09:26:06 PM 29.4522 -95.4617 353° North 195 224 3,700 -439 Descending Houston Center
Fri 09:27:07 PM 29.5006 -95.4339 27° Northeast 193 222 3,100 -492 Descending Houston Center
Fri 09:28:08 PM 29.5428 -95.3925 40° Northeast 195 224 2,700 -632 Descending Houston Center
Fri 09:28:23 PM 29.5553 -95.3781 45° Northeast 192 221 2,300 -968 Descending Houston Center
Fri 09:29:10 PM 29.5786 -95.3522 44° Northeast 188 216 1,700 -722 Descending Houston Center
Fri 09:30:11 PM 29.6039 -95.3236 45° Northeast 148 170 1,000 -689 Descending Houston Center
Fri 09:31:12 PM 29.6294 -95.2961 43° Northeast 132 152 300 -393 Descending Houston Center
Fri 09:32:13 PM 29.6553 -95.2683 43° Northeast 132 152 200 -98 Descending Houston Center

Login

Don't have an account? Register now (free) for customized features, flight alerts, and more!